sensor_id;sensor_type;location;lat;lon;timestamp;temperature;humidity
666;DHT22;315;48.738;9.126;2023-07-13T00:01:43;21.10;99.90
666;DHT22;315;48.738;9.126;2023-07-13T00:04:09;21.10;99.90
666;DHT22;315;48.738;9.126;2023-07-13T00:06:34;21.10;99.90
666;DHT22;315;48.738;9.126;2023-07-13T00:09:01;21.00;99.90
666;DHT22;315;48.738;9.126;2023-07-13T00:11:27;20.90;99.90
666;DHT22;315;48.738;9.126;2023-07-13T00:13:52;20.80;99.90
666;DHT22;315;48.738;9.126;2023-07-13T00:16:18;20.80;99.90
666;DHT22;315;48.738;9.126;2023-07-13T00:18:44;20.70;99.90
666;DHT22;315;48.738;9.126;2023-07-13T00:21:10;20.70;99.90
666;DHT22;315;48.738;9.126;2023-07-13T00:23:39;20.70;99.90
666;DHT22;315;48.738;9.126;2023-07-13T00:26:07;20.60;99.90
666;DHT22;315;48.738;9.126;2023-07-13T00:28:34;20.70;99.90
666;DHT22;315;48.738;9.126;2023-07-13T00:31:00;20.40;99.90
666;DHT22;315;48.738;9.126;2023-07-13T00:33:27;20.30;99.90
666;DHT22;315;48.738;9.126;2023-07-13T00:35:54;20.20;99.90
666;DHT22;315;48.738;9.126;2023-07-13T00:38:20;20.20;99.90
666;DHT22;315;48.738;9.126;2023-07-13T00:40:46;20.10;99.90
666;DHT22;315;48.738;9.126;2023-07-13T00:43:17;20.00;99.90
666;DHT22;315;48.738;9.126;2023-07-13T00:48:10;19.90;99.90
666;DHT22;315;48.738;9.126;2023-07-13T00:50:37;19.80;99.90
666;DHT22;315;48.738;9.126;2023-07-13T00:53:03;19.80;99.90
666;DHT22;315;48.738;9.126;2023-07-13T00:55:28;19.70;99.90
666;DHT22;315;48.738;9.126;2023-07-13T00:57:54;19.70;99.90
666;DHT22;315;48.738;9.126;2023-07-13T01:00:22;19.70;99.90
666;DHT22;315;48.738;9.126;2023-07-13T01:02:48;19.70;99.90
666;DHT22;315;48.738;9.126;2023-07-13T01:05:18;19.60;99.90
666;DHT22;315;48.738;9.126;2023-07-13T01:07:45;19.60;99.90
666;DHT22;315;48.738;9.126;2023-07-13T01:10:12;19.60;99.90
666;DHT22;315;48.738;9.126;2023-07-13T01:12:38;19.70;99.90
666;DHT22;315;48.738;9.126;2023-07-13T01:15:04;19.70;99.90
666;DHT22;315;48.738;9.126;2023-07-13T01:17:33;19.70;99.90
666;DHT22;315;48.738;9.126;2023-07-13T01:19:59;19.70;99.90
666;DHT22;315;48.738;9.126;2023-07-13T01:22:25;19.80;99.90
666;DHT22;315;48.738;9.126;2023-07-13T01:24:53;19.70;99.90
666;DHT22;315;48.738;9.126;2023-07-13T01:27:24;19.70;99.90
666;DHT22;315;48.738;9.126;2023-07-13T01:29:51;19.70;99.90
666;DHT22;315;48.738;9.126;2023-07-13T01:32:20;19.60;99.90
666;DHT22;315;48.738;9.126;2023-07-13T01:34:48;19.60;99.90
666;DHT22;315;48.738;9.126;2023-07-13T01:37:13;19.40;99.90
666;DHT22;315;48.738;9.126;2023-07-13T01:39:39;19.30;99.90
666;DHT22;315;48.738;9.126;2023-07-13T01:42:05;19.20;99.90
666;DHT22;315;48.738;9.126;2023-07-13T01:44:30;19.20;99.90
666;DHT22;315;48.738;9.126;2023-07-13T01:46:56;19.20;99.90
666;DHT22;315;48.738;9.126;2023-07-13T01:49:21;19.10;99.90
666;DHT22;315;48.738;9.126;2023-07-13T01:51:47;19.10;99.90
666;DHT22;315;48.738;9.126;2023-07-13T01:54:12;19.10;99.90
666;DHT22;315;48.738;9.126;2023-07-13T01:56:38;19.10;99.90
666;DHT22;315;48.738;9.126;2023-07-13T01:59:05;19.10;99.90
666;DHT22;315;48.738;9.126;2023-07-13T02:01:30;19.10;99.90
666;DHT22;315;48.738;9.126;2023-07-13T02:03:56;19.00;99.90
666;DHT22;315;48.738;9.126;2023-07-13T02:06:21;18.90;99.90
666;DHT22;315;48.738;9.126;2023-07-13T02:08:47;18.90;99.90
666;DHT22;315;48.738;9.126;2023-07-13T02:11:12;18.90;99.90
666;DHT22;315;48.738;9.126;2023-07-13T02:13:38;18.70;99.90
666;DHT22;315;48.738;9.126;2023-07-13T02:16:04;18.70;99.90
666;DHT22;315;48.738;9.126;2023-07-13T02:18:29;18.70;99.90
666;DHT22;315;48.738;9.126;2023-07-13T02:20:55;18.70;99.90
666;DHT22;315;48.738;9.126;2023-07-13T02:23:20;18.60;99.90
666;DHT22;315;48.738;9.126;2023-07-13T02:25:46;18.50;99.90
666;DHT22;315;48.738;9.126;2023-07-13T02:28:11;18.50;99.90
666;DHT22;315;48.738;9.126;2023-07-13T02:30:37;18.50;99.90
666;DHT22;315;48.738;9.126;2023-07-13T02:33:04;18.40;99.90
666;DHT22;315;48.738;9.126;2023-07-13T02:35:29;18.30;99.90
666;DHT22;315;48.738;9.126;2023-07-13T02:37:55;18.30;99.90
666;DHT22;315;48.738;9.126;2023-07-13T02:40:20;18.30;99.90
666;DHT22;315;48.738;9.126;2023-07-13T02:42:46;18.30;99.90
666;DHT22;315;48.738;9.126;2023-07-13T02:45:11;18.20;99.90
666;DHT22;315;48.738;9.126;2023-07-13T02:47:40;18.10;99.90
666;DHT22;315;48.738;9.126;2023-07-13T02:50:07;18.10;99.90
666;DHT22;315;48.738;9.126;2023-07-13T02:52:33;18.10;99.90
666;DHT22;315;48.738;9.126;2023-07-13T02:54:58;18.10;99.90
666;DHT22;315;48.738;9.126;2023-07-13T02:57:24;18.00;99.90
666;DHT22;315;48.738;9.126;2023-07-13T02:59:49;18.00;99.90
666;DHT22;315;48.738;9.126;2023-07-13T03:02:15;18.00;99.90
666;DHT22;315;48.738;9.126;2023-07-13T03:04:41;18.00;99.90
666;DHT22;315;48.738;9.126;2023-07-13T03:07:06;18.00;99.90
666;DHT22;315;48.738;9.126;2023-07-13T03:09:33;18.00;99.90
666;DHT22;315;48.738;9.126;2023-07-13T03:12:00;18.00;99.90
666;DHT22;315;48.738;9.126;2023-07-13T03:14:26;18.00;99.90
666;DHT22;315;48.738;9.126;2023-07-13T03:16:52;18.00;99.90
666;DHT22;315;48.738;9.126;2023-07-13T03:19:18;18.00;99.90
666;DHT22;315;48.738;9.126;2023-07-13T03:21:44;18.10;99.90
666;DHT22;315;48.738;9.126;2023-07-13T03:24:09;18.20;99.90
666;DHT22;315;48.738;9.126;2023-07-13T03:26:35;18.30;99.90
666;DHT22;315;48.738;9.126;2023-07-13T03:29:00;18.30;99.90
666;DHT22;315;48.738;9.126;2023-07-13T03:31:28;18.30;99.90
666;DHT22;315;48.738;9.126;2023-07-13T03:33:55;18.30;99.90
666;DHT22;315;48.738;9.126;2023-07-13T03:36:24;18.30;99.90
666;DHT22;315;48.738;9.126;2023-07-13T03:38:52;18.20;99.90
666;DHT22;315;48.738;9.126;2023-07-13T03:41:19;18.30;99.90
666;DHT22;315;48.738;9.126;2023-07-13T03:43:45;18.20;99.90
666;DHT22;315;48.738;9.126;2023-07-13T03:46:13;18.30;99.90
666;DHT22;315;48.738;9.126;2023-07-13T03:48:38;18.20;99.90
666;DHT22;315;48.738;9.126;2023-07-13T03:51:06;18.20;99.90
666;DHT22;315;48.738;9.126;2023-07-13T03:53:31;18.30;99.90
666;DHT22;315;48.738;9.126;2023-07-13T03:55:57;18.40;99.90
666;DHT22;315;48.738;9.126;2023-07-13T03:58:37;18.40;99.90
666;DHT22;315;48.738;9.126;2023-07-13T04:01:04;18.50;99.90
666;DHT22;315;48.738;9.126;2023-07-13T04:03:31;18.60;99.90
666;DHT22;315;48.738;9.126;2023-07-13T04:05:58;18.30;99.90
666;DHT22;315;48.738;9.126;2023-07-13T04:08:29;18.30;99.90
666;DHT22;315;48.738;9.126;2023-07-13T04:10:55;18.30;99.90
666;DHT22;315;48.738;9.126;2023-07-13T04:13:21;18.30;99.90
666;DHT22;315;48.738;9.126;2023-07-13T04:15:47;18.30;99.90
666;DHT22;315;48.738;9.126;2023-07-13T04:18:12;18.40;99.90
666;DHT22;315;48.738;9.126;2023-07-13T04:20:38;18.40;99.90
666;DHT22;315;48.738;9.126;2023-07-13T04:23:03;18.50;99.90
666;DHT22;315;48.738;9.126;2023-07-13T04:25:29;18.50;99.90
666;DHT22;315;48.738;9.126;2023-07-13T04:27:54;18.40;99.90
666;DHT22;315;48.738;9.126;2023-07-13T04:30:20;18.50;99.90
666;DHT22;315;48.738;9.126;2023-07-13T04:32:46;18.50;99.90
666;DHT22;315;48.738;9.126;2023-07-13T04:35:12;18.50;99.90
666;DHT22;315;48.738;9.126;2023-07-13T04:37:39;18.60;99.90
666;DHT22;315;48.738;9.126;2023-07-13T04:40:05;18.60;99.90
666;DHT22;315;48.738;9.126;2023-07-13T04:42:31;18.60;99.90
666;DHT22;315;48.738;9.126;2023-07-13T04:44:57;18.70;99.90
666;DHT22;315;48.738;9.126;2023-07-13T04:47:22;18.80;99.90
666;DHT22;315;48.738;9.126;2023-07-13T04:49:48;18.90;99.90
666;DHT22;315;48.738;9.126;2023-07-13T04:52:13;18.90;99.90
666;DHT22;315;48.738;9.126;2023-07-13T04:54:39;18.90;99.90
666;DHT22;315;48.738;9.126;2023-07-13T04:57:05;18.80;99.90
666;DHT22;315;48.738;9.126;2023-07-13T04:59:32;18.80;99.90
666;DHT22;315;48.738;9.126;2023-07-13T05:01:58;18.70;99.90
666;DHT22;315;48.738;9.126;2023-07-13T05:04:24;18.70;99.90
666;DHT22;315;48.738;9.126;2023-07-13T05:06:49;18.70;99.90
666;DHT22;315;48.738;9.126;2023-07-13T05:09:15;18.70;99.90
666;DHT22;315;48.738;9.126;2023-07-13T05:11:40;18.80;99.90
666;DHT22;315;48.738;9.126;2023-07-13T05:14:05;19.00;99.90
666;DHT22;315;48.738;9.126;2023-07-13T05:16:31;19.10;99.90
666;DHT22;315;48.738;9.126;2023-07-13T05:18:58;19.30;99.90
666;DHT22;315;48.738;9.126;2023-07-13T05:21:23;19.50;99.90
666;DHT22;315;48.738;9.126;2023-07-13T05:23:49;19.50;99.90
666;DHT22;315;48.738;9.126;2023-07-13T05:26:14;19.70;99.90
666;DHT22;315;48.738;9.126;2023-07-13T05:28:40;20.00;99.90
666;DHT22;315;48.738;9.126;2023-07-13T05:31:08;20.10;99.90
666;DHT22;315;48.738;9.126;2023-07-13T05:33:34;19.90;99.90
666;DHT22;315;48.738;9.126;2023-07-13T05:35:59;19.90;99.90
666;DHT22;315;48.738;9.126;2023-07-13T05:38:26;20.00;99.90
666;DHT22;315;48.738;9.126;2023-07-13T05:40:53;20.10;99.90
666;DHT22;315;48.738;9.126;2023-07-13T05:43:19;20.10;99.90
666;DHT22;315;48.738;9.126;2023-07-13T05:45:44;20.00;99.90
666;DHT22;315;48.738;9.126;2023-07-13T05:48:10;20.10;99.90
666;DHT22;315;48.738;9.126;2023-07-13T05:50:36;20.10;99.90
666;DHT22;315;48.738;9.126;2023-07-13T05:53:01;20.20;99.90
666;DHT22;315;48.738;9.126;2023-07-13T05:55:27;20.30;99.90
666;DHT22;315;48.738;9.126;2023-07-13T05:57:53;20.30;99.90
666;DHT22;315;48.738;9.126;2023-07-13T06:00:18;20.30;99.90
666;DHT22;315;48.738;9.126;2023-07-13T06:02:44;20.20;99.90
666;DHT22;315;48.738;9.126;2023-07-13T06:05:09;20.10;99.90
666;DHT22;315;48.738;9.126;2023-07-13T06:07:35;20.10;99.90
666;DHT22;315;48.738;9.126;2023-07-13T06:10:00;20.10;99.90
666;DHT22;315;48.738;9.126;2023-07-13T06:12:26;20.20;99.90
666;DHT22;315;48.738;9.126;2023-07-13T06:14:52;20.50;99.90
666;DHT22;315;48.738;9.126;2023-07-13T06:17:17;20.80;99.90
666;DHT22;315;48.738;9.126;2023-07-13T06:19:44;21.00;99.90
666;DHT22;315;48.738;9.126;2023-07-13T06:22:09;21.20;99.90
666;DHT22;315;48.738;9.126;2023-07-13T06:24:35;21.50;99.90
666;DHT22;315;48.738;9.126;2023-07-13T06:27:00;21.60;99.60
666;DHT22;315;48.738;9.126;2023-07-13T06:29:26;21.60;99.90
666;DHT22;315;48.738;9.126;2023-07-13T06:31:52;22.00;98.70
666;DHT22;315;48.738;9.126;2023-07-13T06:34:17;22.30;97.50
666;DHT22;315;48.738;9.126;2023-07-13T06:36:43;22.80;95.50
666;DHT22;315;48.738;9.126;2023-07-13T06:39:09;23.10;94.90
666;DHT22;315;48.738;9.126;2023-07-13T06:41:35;23.40;92.70
666;DHT22;315;48.738;9.126;2023-07-13T06:44:00;23.80;94.00
666;DHT22;315;48.738;9.126;2023-07-13T06:46:28;24.30;90.20
666;DHT22;315;48.738;9.126;2023-07-13T06:48:54;24.40;85.70
666;DHT22;315;48.738;9.126;2023-07-13T06:51:19;24.70;86.30
666;DHT22;315;48.738;9.126;2023-07-13T06:53:45;24.50;82.60
666;DHT22;315;48.738;9.126;2023-07-13T06:56:10;24.70;80.90
666;DHT22;315;48.738;9.126;2023-07-13T06:58:36;24.60;82.10
666;DHT22;315;48.738;9.126;2023-07-13T07:01:03;24.50;81.80
666;DHT22;315;48.738;9.126;2023-07-13T07:03:28;24.60;79.90
666;DHT22;315;48.738;9.126;2023-07-13T07:05:54;24.30;79.10
666;DHT22;315;48.738;9.126;2023-07-13T07:08:19;24.50;76.90
666;DHT22;315;48.738;9.126;2023-07-13T07:10:45;24.30;76.80
666;DHT22;315;48.738;9.126;2023-07-13T07:13:11;24.20;77.00
666;DHT22;315;48.738;9.126;2023-07-13T07:15:36;24.50;75.40
666;DHT22;315;48.738;9.126;2023-07-13T07:18:02;24.50;74.90
666;DHT22;315;48.738;9.126;2023-07-13T07:20:27;24.40;74.80
666;DHT22;315;48.738;9.126;2023-07-13T07:22:53;24.40;75.40
666;DHT22;315;48.738;9.126;2023-07-13T07:25:19;24.20;76.00
666;DHT22;315;48.738;9.126;2023-07-13T07:27:45;24.30;75.00
666;DHT22;315;48.738;9.126;2023-07-13T07:30:11;24.50;73.60
666;DHT22;315;48.738;9.126;2023-07-13T07:32:37;24.50;72.80
666;DHT22;315;48.738;9.126;2023-07-13T07:35:02;24.70;73.20
666;DHT22;315;48.738;9.126;2023-07-13T07:37:28;25.10;72.20
666;DHT22;315;48.738;9.126;2023-07-13T07:39:53;25.30;69.10
666;DHT22;315;48.738;9.126;2023-07-13T07:42:19;25.40;66.90
666;DHT22;315;48.738;9.126;2023-07-13T07:44:44;25.70;65.60
666;DHT22;315;48.738;9.126;2023-07-13T07:47:10;26.10;64.70
666;DHT22;315;48.738;9.126;2023-07-13T07:49:36;26.30;61.00
666;DHT22;315;48.738;9.126;2023-07-13T07:52:02;26.10;61.60
666;DHT22;315;48.738;9.126;2023-07-13T07:54:27;26.10;61.70
666;DHT22;315;48.738;9.126;2023-07-13T07:56:53;26.20;61.60
666;DHT22;315;48.738;9.126;2023-07-13T07:59:19;26.30;60.80
666;DHT22;315;48.738;9.126;2023-07-13T08:01:44;26.40;59.20
666;DHT22;315;48.738;9.126;2023-07-13T08:04:11;26.20;58.30
666;DHT22;315;48.738;9.126;2023-07-13T08:06:37;26.40;59.20
666;DHT22;315;48.738;9.126;2023-07-13T08:11:29;26.90;61.00
666;DHT22;315;48.738;9.126;2023-07-13T08:13:54;27.00;58.40
666;DHT22;315;48.738;9.126;2023-07-13T08:16:20;27.20;58.20
666;DHT22;315;48.738;9.126;2023-07-13T08:18:45;27.20;58.00
666;DHT22;315;48.738;9.126;2023-07-13T08:21:11;26.90;56.00
666;DHT22;315;48.738;9.126;2023-07-13T08:23:36;27.10;56.90
666;DHT22;315;48.738;9.126;2023-07-13T08:26:02;27.10;56.30
666;DHT22;315;48.738;9.126;2023-07-13T08:28:29;27.10;56.40
666;DHT22;315;48.738;9.126;2023-07-13T08:31:00;27.50;56.30
666;DHT22;315;48.738;9.126;2023-07-13T08:33:26;27.90;55.10
666;DHT22;315;48.738;9.126;2023-07-13T08:35:51;28.10;54.80
666;DHT22;315;48.738;9.126;2023-07-13T08:38:17;28.10;53.80
666;DHT22;315;48.738;9.126;2023-07-13T08:40:44;28.60;54.10
666;DHT22;315;48.738;9.126;2023-07-13T08:43:16;28.90;53.20
666;DHT22;315;48.738;9.126;2023-07-13T08:45:48;28.60;52.40
666;DHT22;315;48.738;9.126;2023-07-13T08:48:24;28.60;52.50
666;DHT22;315;48.738;9.126;2023-07-13T08:51:02;28.20;52.60
666;DHT22;315;48.738;9.126;2023-07-13T08:53:38;28.10;52.70
666;DHT22;315;48.738;9.126;2023-07-13T08:56:09;28.10;52.70
666;DHT22;315;48.738;9.126;2023-07-13T08:58:38;28.50;52.70
666;DHT22;315;48.738;9.126;2023-07-13T09:06:47;29.90;50.30
666;DHT22;315;48.738;9.126;2023-07-13T09:09:45;30.30;49.10
666;DHT22;315;48.738;9.126;2023-07-13T09:12:19;30.00;48.80
666;DHT22;315;48.738;9.126;2023-07-13T09:14:53;29.80;48.30
666;DHT22;315;48.738;9.126;2023-07-13T09:17:22;30.00;48.60
666;DHT22;315;48.738;9.126;2023-07-13T09:20:14;29.80;48.80
666;DHT22;315;48.738;9.126;2023-07-13T09:22:42;29.70;48.60
666;DHT22;315;48.738;9.126;2023-07-13T09:25:18;30.10;49.10
666;DHT22;315;48.738;9.126;2023-07-13T09:27:47;30.20;48.10
666;DHT22;315;48.738;9.126;2023-07-13T09:32:41;29.30;48.00
666;DHT22;315;48.738;9.126;2023-07-13T09:35:12;29.30;47.70
666;DHT22;315;48.738;9.126;2023-07-13T09:37:40;29.60;48.60
666;DHT22;315;48.738;9.126;2023-07-13T09:43:15;30.70;46.90
666;DHT22;315;48.738;9.126;2023-07-13T09:45:41;30.80;45.90
666;DHT22;315;48.738;9.126;2023-07-13T09:48:15;30.00;46.50
666;DHT22;315;48.738;9.126;2023-07-13T09:50:42;30.00;46.90
666;DHT22;315;48.738;9.126;2023-07-13T09:53:12;30.50;45.40
666;DHT22;315;48.738;9.126;2023-07-13T09:55:40;30.50;45.70
666;DHT22;315;48.738;9.126;2023-07-13T09:58:21;30.80;45.90
666;DHT22;315;48.738;9.126;2023-07-13T10:01:02;31.60;45.50
666;DHT22;315;48.738;9.126;2023-07-13T10:03:33;31.60;44.60
666;DHT22;315;48.738;9.126;2023-07-13T10:06:15;31.20;44.50
666;DHT22;315;48.738;9.126;2023-07-13T10:08:41;30.80;44.60
666;DHT22;315;48.738;9.126;2023-07-13T10:11:11;30.40;44.60
666;DHT22;315;48.738;9.126;2023-07-13T10:13:42;30.90;44.30
666;DHT22;315;48.738;9.126;2023-07-13T10:16:09;31.50;43.40
666;DHT22;315;48.738;9.126;2023-07-13T10:18:58;32.40;43.10
666;DHT22;315;48.738;9.126;2023-07-13T10:21:30;33.20;42.40
666;DHT22;315;48.738;9.126;2023-07-13T10:24:04;32.80;41.40
666;DHT22;315;48.738;9.126;2023-07-13T10:26:33;32.20;42.00
666;DHT22;315;48.738;9.126;2023-07-13T10:29:05;32.20;42.20
666;DHT22;315;48.738;9.126;2023-07-13T10:31:32;32.00;41.40
666;DHT22;315;48.738;9.126;2023-07-13T10:34:00;31.80;41.90
666;DHT22;315;48.738;9.126;2023-07-13T10:36:41;31.80;42.20
666;DHT22;315;48.738;9.126;2023-07-13T10:39:21;31.60;42.60
666;DHT22;315;48.738;9.126;2023-07-13T10:41:53;31.30;42.70
666;DHT22;315;48.738;9.126;2023-07-13T10:44:24;30.80;42.40
666;DHT22;315;48.738;9.126;2023-07-13T10:46:53;31.30;42.50
666;DHT22;315;48.738;9.126;2023-07-13T10:49:20;30.60;42.80
666;DHT22;315;48.738;9.126;2023-07-13T10:51:47;30.30;42.50
666;DHT22;315;48.738;9.126;2023-07-13T10:54:22;30.70;42.60
666;DHT22;315;48.738;9.126;2023-07-13T10:57:06;30.90;42.40
666;DHT22;315;48.738;9.126;2023-07-13T10:59:33;31.20;42.50
666;DHT22;315;48.738;9.126;2023-07-13T11:02:13;32.00;41.20
666;DHT22;315;48.738;9.126;2023-07-13T11:04:44;33.10;39.90
666;DHT22;315;48.738;9.126;2023-07-13T11:07:24;34.70;37.30
666;DHT22;315;48.738;9.126;2023-07-13T11:09:52;34.60;36.80
666;DHT22;315;48.738;9.126;2023-07-13T11:17:38;36.20;34.10
666;DHT22;315;48.738;9.126;2023-07-13T11:25:32;35.60;33.60
666;DHT22;315;48.738;9.126;2023-07-13T11:28:07;34.80;33.60
666;DHT22;315;48.738;9.126;2023-07-13T11:30:49;35.70;33.60
666;DHT22;315;48.738;9.126;2023-07-13T11:36:06;36.60;33.10
666;DHT22;315;48.738;9.126;2023-07-13T11:38:40;35.20;33.40
666;DHT22;315;48.738;9.126;2023-07-13T11:41:22;33.60;34.90
666;DHT22;315;48.738;9.126;2023-07-13T11:43:53;33.20;35.40
666;DHT22;315;48.738;9.126;2023-07-13T11:46:24;32.70;36.10
666;DHT22;315;48.738;9.126;2023-07-13T11:48:52;34.90;34.90
666;DHT22;315;48.738;9.126;2023-07-13T11:51:27;37.00;32.30
666;DHT22;315;48.738;9.126;2023-07-13T11:53:55;38.10;30.70
666;DHT22;315;48.738;9.126;2023-07-13T11:56:22;39.20;30.30
666;DHT22;315;48.738;9.126;2023-07-13T11:58:51;38.00;29.50
666;DHT22;315;48.738;9.126;2023-07-13T12:01:24;40.20;36.90
666;DHT22;315;48.738;9.126;2023-07-13T12:03:51;38.60;37.00
666;DHT22;315;48.738;9.126;2023-07-13T12:06:31;36.40;37.60
666;DHT22;315;48.738;9.126;2023-07-13T12:09:08;35.10;32.90
666;DHT22;315;48.738;9.126;2023-07-13T12:11:39;35.70;32.50
666;DHT22;315;48.738;9.126;2023-07-13T12:14:05;38.20;30.50
666;DHT22;315;48.738;9.126;2023-07-13T12:16:32;36.80;29.30
666;DHT22;315;48.738;9.126;2023-07-13T12:18:59;36.50;30.20
666;DHT22;315;48.738;9.126;2023-07-13T12:21:33;38.20;29.40
666;DHT22;315;48.738;9.126;2023-07-13T12:24:00;40.60;27.60
666;DHT22;315;48.738;9.126;2023-07-13T12:26:28;41.80;28.10
666;DHT22;315;48.738;9.126;2023-07-13T12:28:55;43.90;41.10
666;DHT22;315;48.738;9.126;2023-07-13T12:34:05;41.00;37.70
666;DHT22;315;48.738;9.126;2023-07-13T12:36:34;39.20;39.60
666;DHT22;315;48.738;9.126;2023-07-13T12:39:13;37.60;39.30
666;DHT22;315;48.738;9.126;2023-07-13T12:41:40;37.70;37.30
666;DHT22;315;48.738;9.126;2023-07-13T12:44:11;39.00;36.60
666;DHT22;315;48.738;9.126;2023-07-13T12:46:37;37.70;35.90
666;DHT22;315;48.738;9.126;2023-07-13T12:49:06;36.70;37.50
666;DHT22;315;48.738;9.126;2023-07-13T12:51:36;37.30;38.10
666;DHT22;315;48.738;9.126;2023-07-13T12:54:19;40.30;36.40
666;DHT22;315;48.738;9.126;2023-07-13T12:56:45;40.70;35.80
666;DHT22;315;48.738;9.126;2023-07-13T12:59:18;42.40;36.20
666;DHT22;315;48.738;9.126;2023-07-13T13:01:46;42.20;36.50
666;DHT22;315;48.738;9.126;2023-07-13T13:04:12;43.60;35.60
666;DHT22;315;48.738;9.126;2023-07-13T13:06:38;43.80;33.50
666;DHT22;315;48.738;9.126;2023-07-13T13:09:12;44.20;33.00
666;DHT22;315;48.738;9.126;2023-07-13T13:11:39;43.60;32.50
666;DHT22;315;48.738;9.126;2023-07-13T13:14:05;42.10;32.70
666;DHT22;315;48.738;9.126;2023-07-13T13:16:34;41.80;33.20
666;DHT22;315;48.738;9.126;2023-07-13T13:19:18;41.80;32.50
666;DHT22;315;48.738;9.126;2023-07-13T13:21:45;42.80;32.10
666;DHT22;315;48.738;9.126;2023-07-13T13:24:13;40.30;32.90
666;DHT22;315;48.738;9.126;2023-07-13T13:26:39;40.30;33.20
666;DHT22;315;48.738;9.126;2023-07-13T13:29:16;39.60;32.90
666;DHT22;315;48.738;9.126;2023-07-13T13:31:43;39.40;33.00
666;DHT22;315;48.738;9.126;2023-07-13T13:34:16;38.90;31.40
666;DHT22;315;48.738;9.126;2023-07-13T13:36:43;38.30;32.30
666;DHT22;315;48.738;9.126;2023-07-13T13:39:21;36.60;32.60
666;DHT22;315;48.738;9.126;2023-07-13T13:41:48;35.00;34.00
666;DHT22;315;48.738;9.126;2023-07-13T13:44:16;33.70;34.70
666;DHT22;315;48.738;9.126;2023-07-13T13:46:44;32.10;35.90
666;DHT22;315;48.738;9.126;2023-07-13T13:49:19;31.90;36.50
666;DHT22;315;48.738;9.126;2023-07-13T13:51:45;30.70;37.30
666;DHT22;315;48.738;9.126;2023-07-13T13:54:15;31.20;37.10
666;DHT22;315;48.738;9.126;2023-07-13T13:56:47;31.50;36.70
666;DHT22;315;48.738;9.126;2023-07-13T13:59:13;31.20;37.30
666;DHT22;315;48.738;9.126;2023-07-13T14:01:40;30.50;38.00
666;DHT22;315;48.738;9.126;2023-07-13T14:04:06;30.50;37.80
666;DHT22;315;48.738;9.126;2023-07-13T14:06:34;30.20;37.60
666;DHT22;315;48.738;9.126;2023-07-13T14:09:00;29.70;37.90
666;DHT22;315;48.738;9.126;2023-07-13T14:11:30;29.40;38.90
666;DHT22;315;48.738;9.126;2023-07-13T14:13:59;29.50;38.90
666;DHT22;315;48.738;9.126;2023-07-13T14:16:33;29.70;39.00
666;DHT22;315;48.738;9.126;2023-07-13T14:18:59;29.90;38.90
666;DHT22;315;48.738;9.126;2023-07-13T14:21:26;29.60;39.10
666;DHT22;315;48.738;9.126;2023-07-13T14:23:52;29.60;39.50
666;DHT22;315;48.738;9.126;2023-07-13T14:26:20;29.40;39.60
666;DHT22;315;48.738;9.126;2023-07-13T14:28:48;29.60;39.90
666;DHT22;315;48.738;9.126;2023-07-13T14:31:16;29.20;39.80
666;DHT22;315;48.738;9.126;2023-07-13T14:33:42;29.10;39.80
666;DHT22;315;48.738;9.126;2023-07-13T14:36:27;29.30;40.30
666;DHT22;315;48.738;9.126;2023-07-13T14:38:54;29.10;40.80
666;DHT22;315;48.738;9.126;2023-07-13T14:41:20;29.30;40.30
666;DHT22;315;48.738;9.126;2023-07-13T14:43:46;29.30;40.20
666;DHT22;315;48.738;9.126;2023-07-13T14:48:51;29.00;40.60
666;DHT22;315;48.738;9.126;2023-07-13T14:51:16;28.80;40.80
666;DHT22;315;48.738;9.126;2023-07-13T14:53:42;28.90;41.40
666;DHT22;315;48.738;9.126;2023-07-13T14:56:11;28.70;41.10
666;DHT22;315;48.738;9.126;2023-07-13T14:58:37;28.40;41.40
666;DHT22;315;48.738;9.126;2023-07-13T15:01:14;28.20;41.90
666;DHT22;315;48.738;9.126;2023-07-13T15:03:44;28.10;41.40
666;DHT22;315;48.738;9.126;2023-07-13T15:06:13;27.90;41.50
666;DHT22;315;48.738;9.126;2023-07-13T15:08:40;27.90;42.00
666;DHT22;315;48.738;9.126;2023-07-13T15:11:07;28.10;42.30
666;DHT22;315;48.738;9.126;2023-07-13T15:13:32;28.20;42.30
666;DHT22;315;48.738;9.126;2023-07-13T15:15:58;28.10;42.20
666;DHT22;315;48.738;9.126;2023-07-13T15:18:25;28.00;42.30
666;DHT22;315;48.738;9.126;2023-07-13T15:20:51;28.00;42.20
666;DHT22;315;48.738;9.126;2023-07-13T15:23:18;27.90;42.50
666;DHT22;315;48.738;9.126;2023-07-13T15:25:45;27.70;42.50
666;DHT22;315;48.738;9.126;2023-07-13T15:28:11;27.70;43.00
666;DHT22;315;48.738;9.126;2023-07-13T15:30:46;27.70;43.10
666;DHT22;315;48.738;9.126;2023-07-13T15:33:26;27.50;43.10
666;DHT22;315;48.738;9.126;2023-07-13T15:35:53;27.30;43.30
666;DHT22;315;48.738;9.126;2023-07-13T15:38:24;27.20;43.40
666;DHT22;315;48.738;9.126;2023-07-13T15:40:51;27.30;43.60
666;DHT22;315;48.738;9.126;2023-07-13T15:43:18;27.20;43.40
666;DHT22;315;48.738;9.126;2023-07-13T15:45:44;27.10;43.10
666;DHT22;315;48.738;9.126;2023-07-13T15:48:15;27.10;43.70
666;DHT22;315;48.738;9.126;2023-07-13T15:50:49;27.10;43.40
666;DHT22;315;48.738;9.126;2023-07-13T15:53:22;27.10;43.50
666;DHT22;315;48.738;9.126;2023-07-13T15:55:48;27.20;43.70
666;DHT22;315;48.738;9.126;2023-07-13T15:58:15;27.30;43.40
666;DHT22;315;48.738;9.126;2023-07-13T16:00:41;27.10;43.30
666;DHT22;315;48.738;9.126;2023-07-13T16:03:08;27.00;43.40
666;DHT22;315;48.738;9.126;2023-07-13T16:05:34;26.90;43.90
666;DHT22;315;48.738;9.126;2023-07-13T16:08:00;26.90;44.00
666;DHT22;315;48.738;9.126;2023-07-13T16:10:37;26.90;43.90
666;DHT22;315;48.738;9.126;2023-07-13T16:13:09;26.90;43.90
666;DHT22;315;48.738;9.126;2023-07-13T16:15:39;26.80;43.50
666;DHT22;315;48.738;9.126;2023-07-13T16:18:06;26.60;44.10
666;DHT22;315;48.738;9.126;2023-07-13T16:20:32;26.70;44.10
666;DHT22;315;48.738;9.126;2023-07-13T16:22:57;26.70;44.50
666;DHT22;315;48.738;9.126;2023-07-13T16:25:25;26.80;43.90
666;DHT22;315;48.738;9.126;2023-07-13T16:27:53;26.60;43.90
666;DHT22;315;48.738;9.126;2023-07-13T16:30:23;26.40;43.90
666;DHT22;315;48.738;9.126;2023-07-13T16:32:58;26.20;44.20
666;DHT22;315;48.738;9.126;2023-07-13T16:35:29;26.10;44.70
666;DHT22;315;48.738;9.126;2023-07-13T16:37:55;26.20;45.10
666;DHT22;315;48.738;9.126;2023-07-13T16:40:27;26.10;44.80
666;DHT22;315;48.738;9.126;2023-07-13T16:42:54;26.10;45.20
666;DHT22;315;48.738;9.126;2023-07-13T16:45:21;26.00;44.80
666;DHT22;315;48.738;9.126;2023-07-13T16:47:49;25.80;44.70
666;DHT22;315;48.738;9.126;2023-07-13T16:50:18;25.90;45.20
666;DHT22;315;48.738;9.126;2023-07-13T16:52:44;25.90;45.20
666;DHT22;315;48.738;9.126;2023-07-13T16:55:13;25.80;45.60
666;DHT22;315;48.738;9.126;2023-07-13T16:57:44;25.90;45.90
666;DHT22;315;48.738;9.126;2023-07-13T17:00:19;25.80;45.50
666;DHT22;315;48.738;9.126;2023-07-13T17:02:56;25.80;45.80
666;DHT22;315;48.738;9.126;2023-07-13T17:05:32;25.70;45.60
666;DHT22;315;48.738;9.126;2023-07-13T17:08:02;25.70;46.10
666;DHT22;315;48.738;9.126;2023-07-13T17:10:29;25.70;46.50
666;DHT22;315;48.738;9.126;2023-07-13T17:12:55;25.70;46.30
666;DHT22;315;48.738;9.126;2023-07-13T17:15:24;25.50;46.50